Terminal Aerodrome Forecast
Issued by NWS Boston, MA

Home | Current Version | Previous Version | Text Only | Print | Product List | Glossary On
Versions: 1 2 3 4 5 6 7 8 9 10 11 12 13 14 15 16 17 18 19 20 21 22 23 24 25 26 27
000
FTUS41 KBOX 202320
TAFORH
TAF
KORH 202320Z 2100/2124 21007KT P6SM BKN060
     FM210900 18005KT 3SM BR OVC003
     FM211500 17007KT 3SM BR BKN008
     FM211800 18008KT P6SM BKN025
     FM212100 18006KT P6SM BKN250=

USA.gov is the U.S. government's official web portal to all federal, state and local government web resources and services.